OXF weather

Oxford (Kidlington) Airport
Kidlington, England, United Kingdom

Public forecast

Using degrees Celsius for public forecast. Weather courtesy of forecast.io.

METAR (pilot weather report)

Retrieved 2019/04/24 05:20 UTC (25 minutes ago):

EGTK 240520Z 02002KT 3000 BR NSC 08/07 Q0992

TAF (pilot weather forecast)

Closest forecast is RAF Brize Norton, 11.1 nm (20.5 km) WSW. Retrieved 2019/04/24 03:00 UTC (3 hours ago):

TAF EGVN 240151Z 2403/2503 06005KT CAVOK PROB30 2403/2408 6000 HZ TEMPO 2410/2416 5000 SHRA SCT022 PROB30 TEMPO 2411/2416 13015G25KT 3500 +SHRA SCT012 BKN025CB PROB30 TEMPO 2416/2418 5000 SHRA SCT018 TEMPO 2502/2503 5000 RA BKN014